createdAt,value
2023-03-05T00:01:14.925Z,5.70
2023-03-05T00:03:43.235Z,5.80
2023-03-05T00:06:10.439Z,5.70
2023-03-05T00:08:37.401Z,5.60
2023-03-05T00:11:07.599Z,5.80
2023-03-05T00:13:35.460Z,5.70
2023-03-05T00:16:14.461Z,5.80
2023-03-05T00:18:42.025Z,5.70
2023-03-05T00:21:34.721Z,5.70
2023-03-05T00:24:03.617Z,5.70
2023-03-05T00:26:31.531Z,5.60
2023-03-05T00:28:58.949Z,5.70
2023-03-05T00:31:31.137Z,5.70
2023-03-05T00:34:04.001Z,5.50
2023-03-05T00:36:31.109Z,5.50
2023-03-05T00:38:59.129Z,5.40
2023-03-05T00:41:25.942Z,5.50
2023-03-05T00:43:52.672Z,5.50
2023-03-05T00:46:19.462Z,5.50
2023-03-05T00:51:13.277Z,5.50
2023-03-05T00:56:07.578Z,5.30
2023-03-05T00:58:34.243Z,5.40
2023-03-05T01:03:30.707Z,5.50
2023-03-05T01:05:57.866Z,5.40
2023-03-05T01:08:25.036Z,5.20
2023-03-05T01:10:52.080Z,5.30
2023-03-05T01:13:19.387Z,5.20
2023-03-05T01:20:42.428Z,5.30
2023-03-05T01:23:09.999Z,5.50
2023-03-05T01:25:36.731Z,5.10
2023-03-05T01:28:03.753Z,5.30
2023-03-05T01:30:30.556Z,5.30
2023-03-05T01:35:25.640Z,5.30
2023-03-05T01:37:53.908Z,5.20
2023-03-05T01:40:30.581Z,5.20
2023-03-05T01:43:01.265Z,5.30
2023-03-05T01:45:31.793Z,5.00
2023-03-05T01:47:58.582Z,5.20
2023-03-05T01:50:27.377Z,5.20
2023-03-05T01:53:01.388Z,5.20
2023-03-05T01:55:30.861Z,5.10
2023-03-05T01:58:10.668Z,5.10
2023-03-05T02:00:50.380Z,5.10
2023-03-05T02:03:17.130Z,5.20
2023-03-05T02:05:45.654Z,5.00
2023-03-05T02:08:15.897Z,5.10
2023-03-05T02:10:51.935Z,5.10
2023-03-05T02:13:22.661Z,5.10
2023-03-05T02:15:50.418Z,5.10
2023-03-05T02:18:18.582Z,5.20
2023-03-05T02:20:54.046Z,5.20
2023-03-05T02:23:22.579Z,5.20
2023-03-05T02:25:49.775Z,5.10
2023-03-05T02:28:25.220Z,5.20
2023-03-05T02:30:52.570Z,5.10
2023-03-05T02:33:20.448Z,5.00
2023-03-05T02:35:47.126Z,5.00
2023-03-05T02:38:17.379Z,5.00
2023-03-05T02:43:12.131Z,5.00
2023-03-05T02:45:39.266Z,5.00
2023-03-05T02:48:06.403Z,4.70
2023-03-05T02:50:34.103Z,5.00
2023-03-05T02:55:28.032Z,5.00
2023-03-05T02:57:54.692Z,5.00
2023-03-05T03:02:48.677Z,4.90
2023-03-05T03:05:16.142Z,4.80
2023-03-05T03:07:42.805Z,5.00
2023-03-05T03:10:10.609Z,5.00
2023-03-05T03:12:42.108Z,5.00
2023-03-05T03:15:11.291Z,5.00
2023-03-05T03:17:38.684Z,5.00
2023-03-05T03:20:07.623Z,5.00
2023-03-05T03:22:34.295Z,5.00
2023-03-05T03:25:01.574Z,5.00
2023-03-05T03:27:28.331Z,5.00
2023-03-05T03:29:55.023Z,5.00
2023-03-05T03:32:21.837Z,5.00
2023-03-05T03:34:48.578Z,5.00
2023-03-05T03:37:15.564Z,5.00
2023-03-05T03:39:42.241Z,5.00
2023-03-05T03:42:08.913Z,5.00
2023-03-05T03:44:35.705Z,4.90
2023-03-05T03:47:02.392Z,4.90
2023-03-05T03:49:29.171Z,4.80
2023-03-05T03:51:55.971Z,4.90
2023-03-05T03:54:23.031Z,4.80
2023-03-05T03:56:50.025Z,5.20
2023-03-05T03:59:17.042Z,4.90
2023-03-05T04:04:13.059Z,4.80
2023-03-05T04:06:40.208Z,4.80
2023-03-05T04:09:08.225Z,4.70
2023-03-05T04:11:38.281Z,5.00
2023-03-05T04:14:05.556Z,4.90
2023-03-05T04:16:32.477Z,4.80
2023-03-05T04:18:59.147Z,4.80
2023-03-05T04:23:52.949Z,4.80
2023-03-05T04:26:19.749Z,4.60
2023-03-05T04:28:48.308Z,4.80
2023-03-05T04:33:42.493Z,4.90
2023-03-05T04:36:09.370Z,4.80
2023-03-05T04:38:36.024Z,4.70
2023-03-05T04:41:02.694Z,4.90
2023-03-05T04:45:56.649Z,4.80
2023-03-05T04:50:50.510Z,4.90
2023-03-05T04:53:17.202Z,4.80
2023-03-05T04:55:44.026Z,4.70
2023-03-05T04:58:10.868Z,4.80
2023-03-05T05:03:04.873Z,4.70
2023-03-05T05:05:31.564Z,4.60
2023-03-05T05:07:58.964Z,4.70
2023-03-05T05:10:27.009Z,4.80
2023-03-05T05:15:21.349Z,4.60
2023-03-05T05:17:48.501Z,4.60
2023-03-05T05:20:16.793Z,4.60
2023-03-05T05:22:44.238Z,4.70
2023-03-05T05:25:11.625Z,4.60
2023-03-05T05:27:40.130Z,4.60
2023-03-05T05:30:07.977Z,4.60
2023-03-05T05:32:35.036Z,4.50
2023-03-05T05:35:01.933Z,4.60
2023-03-05T05:37:30.638Z,4.40
2023-03-05T05:42:25.742Z,4.60
2023-03-05T05:44:53.331Z,4.50
2023-03-05T05:49:47.347Z,4.50
2023-03-05T05:54:41.317Z,4.60
2023-03-05T05:59:35.233Z,4.50
2023-03-05T06:02:02.021Z,4.40
2023-03-05T06:06:55.840Z,4.50
2023-03-05T06:14:17.611Z,4.50
2023-03-05T06:19:15.902Z,4.50
2023-03-05T06:21:43.489Z,4.60
2023-03-05T06:24:10.649Z,4.50
2023-03-05T06:34:03.588Z,4.70
2023-03-05T06:36:31.388Z,4.60
2023-03-05T06:38:58.942Z,4.80
2023-03-05T06:41:28.566Z,4.60
2023-03-05T06:46:25.517Z,4.60
2023-03-05T06:51:25.923Z,4.70
2023-03-05T06:53:53.657Z,4.70
2023-03-05T06:56:20.911Z,4.80
2023-03-05T06:58:49.790Z,4.80
2023-03-05T07:01:16.822Z,4.90
2023-03-05T07:06:15.893Z,4.90
2023-03-05T07:08:44.717Z,4.90
2023-03-05T07:11:18.192Z,5.00
2023-03-05T07:13:47.666Z,5.00
2023-03-05T07:16:24.134Z,5.20
2023-03-05T07:18:51.270Z,5.20
2023-03-05T07:21:21.640Z,5.20
2023-03-05T07:23:49.278Z,5.30
2023-03-05T07:26:16.542Z,5.30
2023-03-05T07:31:17.870Z,5.40
2023-03-05T07:33:48.340Z,5.50
2023-03-05T07:36:15.454Z,5.50
2023-03-05T07:38:42.319Z,5.60
2023-03-05T07:41:12.413Z,5.60
2023-03-05T07:43:39.340Z,5.70
2023-03-05T07:46:11.604Z,5.70
2023-03-05T07:48:38.428Z,5.60
2023-03-05T07:51:08.575Z,5.50
2023-03-05T07:56:02.878Z,5.60
2023-03-05T07:58:29.662Z,5.50
2023-03-05T08:00:56.356Z,5.60
2023-03-05T08:03:23.064Z,5.70
2023-03-05T08:13:11.610Z,5.60
2023-03-05T08:15:39.058Z,5.30
2023-03-05T08:18:06.106Z,5.70
2023-03-05T08:20:36.446Z,5.50
2023-03-05T08:23:03.929Z,5.40
2023-03-05T08:30:27.391Z,5.70
2023-03-05T08:32:55.080Z,5.60
2023-03-05T08:35:22.056Z,5.80
2023-03-05T08:40:18.039Z,5.50
2023-03-05T08:42:45.303Z,5.70
2023-03-05T08:45:12.776Z,5.80
2023-03-05T08:47:39.705Z,5.90
2023-03-05T08:50:06.973Z,5.80
2023-03-05T08:55:00.809Z,6.30
2023-03-05T08:57:27.578Z,5.90
2023-03-05T08:59:54.274Z,6.10
2023-03-05T09:02:21.181Z,6.10
2023-03-05T09:04:47.912Z,6.10
2023-03-05T09:07:14.626Z,6.20
2023-03-05T09:09:41.295Z,6.30
2023-03-05T09:14:40.124Z,6.20
2023-03-05T09:19:34.009Z,6.30
2023-03-05T09:24:27.798Z,6.50
2023-03-05T09:26:57.737Z,6.50
2023-03-05T09:31:51.952Z,6.80
2023-03-05T09:36:45.823Z,6.60
2023-03-05T09:41:48.264Z,6.90
2023-03-05T09:44:29.944Z,6.90
2023-03-05T09:47:09.965Z,7.00
2023-03-05T09:49:52.149Z,7.10
2023-03-05T09:52:23.418Z,7.10
2023-03-05T09:54:56.585Z,7.50
2023-03-05T09:57:28.931Z,7.60
2023-03-05T10:00:02.761Z,7.40
2023-03-05T10:02:36.591Z,7.30
2023-03-05T10:07:34.216Z,7.40
2023-03-05T10:10:09.779Z,6.80
2023-03-05T10:12:45.421Z,6.80
2023-03-05T10:15:21.100Z,6.70
2023-03-05T10:18:14.217Z,6.50
2023-03-05T10:21:01.421Z,6.30
2023-03-05T10:23:40.065Z,6.20
2023-03-05T10:26:28.562Z,6.10
2023-03-05T10:29:18.512Z,5.30
2023-03-05T10:32:22.840Z,5.90
2023-03-05T10:35:07.889Z,6.00
2023-03-05T10:37:47.122Z,6.10
2023-03-05T10:42:50.249Z,6.10
2023-03-05T10:45:44.511Z,6.30
2023-03-05T10:48:38.759Z,6.40
2023-03-05T10:51:36.239Z,6.40
2023-03-05T10:54:16.477Z,6.50
2023-03-05T10:59:10.258Z,6.40
2023-03-05T11:04:25.766Z,6.40
2023-03-05T11:06:52.649Z,6.20
2023-03-05T11:09:29.706Z,6.40
2023-03-05T11:12:21.899Z,6.50
2023-03-05T11:15:07.041Z,6.40
2023-03-05T11:17:37.760Z,6.40
2023-03-05T11:20:31.910Z,6.40
2023-03-05T11:23:25.347Z,6.50
2023-03-05T11:26:13.148Z,6.50
2023-03-05T11:28:55.315Z,6.50
2023-03-05T11:31:27.753Z,6.50
2023-03-05T11:36:38.767Z,6.60
2023-03-05T11:39:08.174Z,6.60
2023-03-05T11:41:39.436Z,6.80
2023-03-05T11:44:26.776Z,6.70
2023-03-05T11:47:24.231Z,6.70
2023-03-05T11:49:55.268Z,6.80
2023-03-05T11:52:47.294Z,7.00
2023-03-05T11:55:40.323Z,7.10
2023-03-05T11:58:44.601Z,7.00
2023-03-05T12:01:20.602Z,6.50
2023-03-05T12:06:36.409Z,6.40
2023-03-05T12:09:21.326Z,6.10
2023-03-05T12:11:51.716Z,5.80
2023-03-05T12:16:52.282Z,5.80
2023-03-05T12:19:37.397Z,6.00
2023-03-05T12:22:05.324Z,6.10
2023-03-05T12:27:04.763Z,6.60
2023-03-05T12:29:44.799Z,6.70
2023-03-05T12:32:25.443Z,6.80
2023-03-05T12:35:04.343Z,6.80
2023-03-05T12:40:10.867Z,6.70
2023-03-05T12:45:14.538Z,6.90
2023-03-05T12:47:45.905Z,6.80
2023-03-05T12:50:28.007Z,6.80
2023-03-05T12:53:04.246Z,6.80
2023-03-05T12:55:45.353Z,6.80
2023-03-05T12:58:19.793Z,6.90
2023-03-05T13:00:59.916Z,7.00
2023-03-05T13:03:39.123Z,7.20
2023-03-05T13:06:08.121Z,7.20
2023-03-05T13:08:37.232Z,7.30
2023-03-05T13:11:21.674Z,7.50
2023-03-05T13:13:50.274Z,7.40
2023-03-05T13:16:30.296Z,7.40
2023-03-05T13:19:02.204Z,7.30
2023-03-05T13:26:39.842Z,7.70
2023-03-05T13:31:36.718Z,8.50
2023-03-05T13:34:20.481Z,8.00
2023-03-05T13:36:56.557Z,7.80
2023-03-05T13:39:27.388Z,7.90
2023-03-05T13:44:34.388Z,8.30
2023-03-05T13:47:20.417Z,8.30
2023-03-05T13:52:36.257Z,8.00
2023-03-05T13:55:11.918Z,7.90
2023-03-05T13:57:44.648Z,7.90
2023-03-05T14:03:21.790Z,7.90
2023-03-05T14:05:50.038Z,7.90
2023-03-05T14:08:34.923Z,7.70
2023-03-05T14:11:16.519Z,7.30
2023-03-05T14:13:44.358Z,7.20
2023-03-05T14:18:39.688Z,7.10
2023-03-05T14:21:11.305Z,7.00
2023-03-05T14:23:42.908Z,7.30
2023-03-05T14:26:32.750Z,7.20
2023-03-05T14:31:29.745Z,7.00
2023-03-05T14:34:03.898Z,6.90
2023-03-05T14:36:32.038Z,6.80
2023-03-05T14:39:00.660Z,6.40
2023-03-05T14:41:40.529Z,6.70
2023-03-05T14:44:15.686Z,6.60
2023-03-05T14:51:43.446Z,6.50
2023-03-05T14:54:20.445Z,6.50
2023-03-05T14:56:47.942Z,6.60
2023-03-05T15:06:39.972Z,6.70
2023-03-05T15:14:02.310Z,7.20
2023-03-05T15:16:32.118Z,7.20
2023-03-05T15:18:58.887Z,7.10
2023-03-05T15:23:52.665Z,7.10
2023-03-05T15:26:19.575Z,6.70
2023-03-05T15:33:41.832Z,7.00
2023-03-05T15:50:54.351Z,6.50
2023-03-05T15:58:17.591Z,6.50
2023-03-05T16:03:12.658Z,6.30
2023-03-05T16:08:07.356Z,6.40
2023-03-05T16:10:36.514Z,6.50
2023-03-05T16:13:09.487Z,6.20
2023-03-05T16:15:39.590Z,6.20
2023-03-05T16:18:11.559Z,6.20
2023-03-05T16:23:06.302Z,5.80
2023-03-05T16:35:21.950Z,5.90
2023-03-05T16:37:48.652Z,5.90
2023-03-05T16:40:15.638Z,5.80
2023-03-05T16:42:42.608Z,5.70
2023-03-05T16:45:10.710Z,5.90
2023-03-05T16:50:06.543Z,5.80
2023-03-05T16:55:00.461Z,5.70
2023-03-05T16:57:28.937Z,5.80
2023-03-05T16:59:56.808Z,5.70
2023-03-05T17:02:23.742Z,5.70
2023-03-05T17:07:18.220Z,5.70
2023-03-05T17:26:55.373Z,5.30
2023-03-05T17:31:53.176Z,5.60
2023-03-05T17:34:33.222Z,5.60
2023-03-05T17:39:28.076Z,5.60
2023-03-05T17:46:49.020Z,5.50
2023-03-05T17:49:15.712Z,5.50
2023-03-05T17:54:09.511Z,5.10
2023-03-05T17:59:03.521Z,5.40
2023-03-05T18:01:32.817Z,5.40
2023-03-05T18:06:27.014Z,5.20
2023-03-05T18:13:48.477Z,5.40
2023-03-05T18:18:44.466Z,7.10
2023-03-05T18:23:38.431Z,5.40
2023-03-05T18:26:05.239Z,5.40
2023-03-05T18:30:59.546Z,5.20
2023-03-05T18:35:54.074Z,5.00
2023-03-05T18:38:22.168Z,5.30
2023-03-05T18:40:51.239Z,5.20
2023-03-05T18:43:20.624Z,5.30
2023-03-05T18:45:52.231Z,5.20
2023-03-05T18:53:14.565Z,5.20
2023-03-05T19:03:05.770Z,5.00
2023-03-05T19:05:32.614Z,5.00
2023-03-05T19:13:18.615Z,5.00
2023-03-05T19:25:36.459Z,5.20
2023-03-05T19:32:57.729Z,5.30
2023-03-05T19:37:51.527Z,5.20
2023-03-05T19:50:07.661Z,5.10
2023-03-05T19:59:56.188Z,5.00
2023-03-05T20:02:22.862Z,5.20
2023-03-05T20:07:17.241Z,5.10
2023-03-05T20:17:05.550Z,5.20
2023-03-05T20:21:59.398Z,5.10
2023-03-05T20:24:26.062Z,5.10
2023-03-05T20:31:49.894Z,5.10
2023-03-05T20:34:18.694Z,5.00
2023-03-05T20:36:46.414Z,5.00
2023-03-05T20:41:40.816Z,5.10
2023-03-05T20:44:08.499Z,5.00
2023-03-05T20:46:41.785Z,4.90
2023-03-05T20:49:09.729Z,5.10
2023-03-05T20:51:38.289Z,5.00
2023-03-05T20:54:07.512Z,5.00
2023-03-05T20:56:34.884Z,4.70
2023-03-05T20:59:04.524Z,4.90
2023-03-05T21:01:33.878Z,4.80
2023-03-05T21:04:01.441Z,5.00
2023-03-05T21:06:30.861Z,4.90
2023-03-05T21:08:58.687Z,4.70
2023-03-05T21:11:25.613Z,4.70
2023-03-05T21:16:22.558Z,5.10
2023-03-05T21:26:13.386Z,4.60
2023-03-05T21:28:40.719Z,4.90
2023-03-05T21:31:09.506Z,4.80
2023-03-05T21:33:36.322Z,4.70
2023-03-05T21:36:03.800Z,4.60
2023-03-05T21:41:01.741Z,4.70
2023-03-05T21:43:31.035Z,4.80
2023-03-05T21:48:25.479Z,4.80
2023-03-05T21:53:21.287Z,4.80
2023-03-05T21:56:10.742Z,4.80
2023-03-05T22:01:05.101Z,4.70
2023-03-05T22:03:31.857Z,4.80
2023-03-05T22:05:58.620Z,5.10
2023-03-05T22:08:25.507Z,4.90
2023-03-05T22:10:52.723Z,4.80
2023-03-05T22:15:52.012Z,4.70
2023-03-05T22:18:21.237Z,4.70
2023-03-05T22:20:48.789Z,4.80
2023-03-05T22:23:16.658Z,4.70
2023-03-05T22:25:44.337Z,4.70
2023-03-05T22:28:12.764Z,4.30
2023-03-05T22:30:44.295Z,4.70
2023-03-05T22:35:40.555Z,4.60
2023-03-05T22:38:08.872Z,4.70
2023-03-05T22:40:37.569Z,4.50
2023-03-05T22:43:04.814Z,4.70
2023-03-05T22:45:32.346Z,4.70
2023-03-05T22:50:26.349Z,4.70
2023-03-05T22:55:20.980Z,5.00
2023-03-05T23:00:18.450Z,4.60
2023-03-05T23:05:12.503Z,4.50
2023-03-05T23:07:41.553Z,4.60
2023-03-05T23:10:23.469Z,4.60
2023-03-05T23:12:53.192Z,4.60
2023-03-05T23:15:29.365Z,4.60
2023-03-05T23:20:30.154Z,4.60
2023-03-05T23:22:57.283Z,4.40
2023-03-05T23:25:27.712Z,4.60
2023-03-05T23:27:54.988Z,4.50
2023-03-05T23:30:24.141Z,4.30
2023-03-05T23:32:53.747Z,4.50
2023-03-05T23:35:38.571Z,4.40
2023-03-05T23:38:08.849Z,4.50
2023-03-05T23:40:40.155Z,4.40
2023-03-05T23:50:34.677Z,4.40
2023-03-05T23:53:02.474Z,4.40
2023-03-05T23:55:34.638Z,4.30
